Time;durP1;ratioP1;P1;durP2;ratioP2;P2;SDS_P1;SDS_P2;PMS_P1;PMS_P2;Temp;Humidity;BMP_temperature;BMP_pressure;BME280_temperature;BME280_humidity;BME280_pressure;Samples;Min_cycle;Max_cycle;Signal;HPM_P1;HPM_P2
2022/01/27 00:00:07;;;;;;;;;13.75;11.75;;;;;;;;5077808;27;45624;-73
2022/01/27 00:05:15;;;;;;;;;12.75;12.75;;;;;;;;5076885;27;45496;-72
2022/01/27 00:07:42;;;;;;;;;15.50;13.50;;;;;;;;5075894;27;45427;-72
2022/01/27 00:12:32;;;;;;;;;10.50;10.50;;;;;;;;5077142;28;45418;-72
2022/01/27 00:15:09;;;;;;;;;12.75;10.50;;;;;;;;5074556;27;46324;-72
2022/01/27 00:17:39;;;;;;;;;14.00;13.50;;;;;;;;5072553;28;45460;-72
2022/01/27 00:20:06;;;;;;;;;14.25;13.25;;;;;;;;5073155;27;45265;-72
2022/01/27 00:22:31;;;;;;;;;17.25;13.75;;;;;;;;5083444;27;45225;-72
2022/01/27 00:24:57;;;;;;;;;14.00;10.50;;;;;;;;5075893;28;45414;-73
2022/01/27 00:27:22;;;;;;;;;11.50;11.25;;;;;;;;5075212;28;45559;-72
2022/01/27 00:29:47;;;;;;;;;14.00;12.00;;;;;;;;5073742;28;45338;-72
2022/01/27 00:32:12;;;;;;;;;12.50;11.00;;;;;;;;5076811;27;45235;-72
2022/01/27 00:34:37;;;;;;;;;14.00;12.00;;;;;;;;5058228;27;47024;-72
2022/01/27 00:37:03;;;;;;;;;12.75;9.25;;;;;;;;5075373;27;45303;-72
2022/01/27 00:39:28;;;;;;;;;13.50;13.00;;;;;;;;5076226;28;45305;-72
2022/01/27 00:41:53;;;;;;;;;11.25;11.00;;;;;;;;5073954;27;45493;-72
2022/01/27 00:44:19;;;;;;;;;12.25;12.25;;;;;;;;5074171;27;46375;-72
2022/01/27 00:46:44;;;;;;;;;15.75;12.75;;;;;;;;5086208;27;45713;-72
2022/01/27 00:49:09;;;;;;;;;12.00;12.00;;;;;;;;5077089;27;45408;-72
2022/01/27 00:51:37;;;;;;;;;13.50;12.50;;;;;;;;5078087;27;45396;-72
2022/01/27 00:57:33;;;;;;;;;13.25;12.75;;;;;;;;5073264;27;45494;-72
2022/01/27 01:02:41;;;;;;;;;10.25;8.75;;;;;;;;5083202;27;45476;-72
2022/01/27 01:04:37;;;;;;;;;14.00;13.00;;;;;;;;5067874;27;46500;-72
2022/01/27 01:07:03;;;;;;;;;13.00;12.75;;;;;;;;5079219;27;45300;-72
2022/01/27 01:17:12;;;;;;;;;13.75;12.75;;;;;;;;5073276;27;45333;-72
2022/01/27 01:19:51;;;;;;;;;14.00;13.50;;;;;;;;5074218;27;45407;-72
2022/01/27 01:31:12;;;;;;;;;17.00;13.50;;;;;;;;5075003;28;45405;-72
2022/01/27 01:33:25;;;;;;;;;10.00;9.50;;;;;;;;5076818;27;45390;-72
2022/01/27 01:36:01;;;;;;;;;15.00;13.50;;;;;;;;5079888;27;46369;-72
2022/01/27 01:38:26;;;;;;;;;14.00;11.25;;;;;;;;5076998;27;45438;-72
2022/01/27 01:40:52;;;;;;;;;15.00;13.75;;;;;;;;5076154;27;45411;-73
2022/01/27 01:43:18;;;;;;;;;11.00;9.75;;;;;;;;5075798;27;45365;-72
2022/01/27 01:45:44;;;;;;;;;13.00;11.25;;;;;;;;5078225;27;45501;-72
2022/01/27 01:48:09;;;;;;;;;17.50;13.75;;;;;;;;5077453;28;45322;-72
2022/01/27 01:50:35;;;;;;;;;12.50;10.50;;;;;;;;5075686;27;45478;-73
2022/01/27 01:53:01;;;;;;;;;12.25;12.25;;;;;;;;5078038;27;45424;-72
2022/01/27 01:55:26;;;;;;;;;14.00;13.00;;;;;;;;5075512;27;46310;-72
2022/01/27 01:57:51;;;;;;;;;12.50;12.00;;;;;;;;5079134;27;45368;-72
2022/01/27 02:00:17;;;;;;;;;12.25;12.00;;;;;;;;5076585;28;45491;-72
2022/01/27 02:02:42;;;;;;;;;12.75;10.25;;;;;;;;5076818;27;45406;-72
2022/01/27 02:05:08;;;;;;;;;16.25;12.75;;;;;;;;5077880;27;46288;-72
2022/01/27 02:18:01;;;;;;;;;13.00;12.50;;;;;;;;5074825;28;45369;-72
2022/01/27 02:20:29;;;;;;;;;15.00;13.25;;;;;;;;5076471;28;45371;-72
2022/01/27 02:22:55;;;;;;;;;13.50;11.00;;;;;;;;5087744;27;45466;-72
2022/01/27 02:25:20;;;;;;;;;12.25;12.25;;;;;;;;5075955;27;45994;-73
2022/01/27 02:27:45;;;;;;;;;13.25;11.25;;;;;;;;5078400;27;45412;-72
2022/01/27 02:30:11;;;;;;;;;13.50;12.50;;;;;;;;5074458;27;45701;-72
2022/01/27 02:32:37;;;;;;;;;15.00;13.00;;;;;;;;5075264;28;45394;-72
2022/01/27 02:35:03;;;;;;;;;11.00;10.75;;;;;;;;5076074;28;45611;-72
2022/01/27 02:37:28;;;;;;;;;11.00;10.75;;;;;;;;5074786;28;45404;-72
2022/01/27 02:39:53;;;;;;;;;11.50;11.50;;;;;;;;5078129;27;45529;-72
2022/01/27 02:42:29;;;;;;;;;14.00;12.75;;;;;;;;5076532;27;45293;-73
2022/01/27 02:44:54;;;;;;;;;11.00;11.00;;;;;;;;5076779;27;46367;-72
2022/01/27 02:47:20;;;;;;;;;12.50;10.00;;;;;;;;5084263;27;45248;-72
2022/01/27 02:49:46;;;;;;;;;12.50;12.50;;;;;;;;5074740;27;45565;-72
2022/01/27 02:52:11;;;;;;;;;10.25;9.75;;;;;;;;5075844;28;45175;-72
2022/01/27 02:54:37;;;;;;;;;16.75;12.50;;;;;;;;5077653;28;46361;-72
2022/01/27 02:57:02;;;;;;;;;10.75;8.00;;;;;;;;5074732;27;45553;-73
2022/01/27 02:59:27;;;;;;;;;13.00;13.00;;;;;;;;5075791;28;45305;-72
2022/01/27 03:01:53;;;;;;;;;12.75;10.50;;;;;;;;5086332;27;45442;-72
2022/01/27 03:04:19;;;;;;;;;10.25;10.25;;;;;;;;5075742;27;46971;-72
2022/01/27 03:06:45;;;;;;;;;13.25;11.50;;;;;;;;5077907;28;45309;-72
2022/01/27 03:09:10;;;;;;;;;13.00;11.25;;;;;;;;5077259;27;45352;-72
2022/01/27 03:11:38;;;;;;;;;13.00;13.00;;;;;;;;5083701;27;45320;-73
2022/01/27 03:14:04;;;;;;;;;13.25;9.50;;;;;;;;5075673;28;46309;-73
2022/01/27 03:16:29;;;;;;;;;11.00;11.00;;;;;;;;5073368;28;45407;-72
2022/01/27 03:18:54;;;;;;;;;12.50;12.00;;;;;;;;5077528;27;45481;-72
2022/01/27 03:21:19;;;;;;;;;12.75;12.75;;;;;;;;5074643;28;45273;-73
2022/01/27 03:23:45;;;;;;;;;12.50;10.00;;;;;;;;5073195;28;45346;-73
2022/01/27 03:26:10;;;;;;;;;11.25;10.25;;;;;;;;5075839;27;45501;-72
2022/01/27 03:28:35;;;;;;;;;13.00;10.25;;;;;;;;5079626;27;45489;-73
2022/01/27 03:31:00;;;;;;;;;11.00;11.00;;;;;;;;5085442;27;45237;-72
2022/01/27 03:33:25;;;;;;;;;11.50;11.50;;;;;;;;5081506;27;46705;-72
2022/01/27 03:35:51;;;;;;;;;11.00;9.75;;;;;;;;5076930;27;45495;-72
2022/01/27 03:38:16;;;;;;;;;19.75;12.25;;;;;;;;5072563;28;45442;-73
2022/01/27 03:40:41;;;;;;;;;9.25;9.25;;;;;;;;5077787;27;45355;-73
2022/01/27 03:43:09;;;;;;;;;12.50;10.25;;;;;;;;5076329;27;47142;-72
2022/01/27 03:45:34;;;;;;;;;9.25;9.00;;;;;;;;5077973;27;45391;-73
2022/01/27 03:48:00;;;;;;;;;11.00;11.00;;;;;;;;5077569;27;45447;-72
2022/01/27 03:50:25;;;;;;;;;13.00;13.00;;;;;;;;5076556;27;45517;-72
2022/01/27 03:52:51;;;;;;;;;9.00;7.50;;;;;;;;5073592;28;45467;-73
2022/01/27 03:55:16;;;;;;;;;12.00;10.00;;;;;;;;5075106;27;45363;-72
2022/01/27 03:57:41;;;;;;;;;9.50;8.50;;;;;;;;5076750;28;45491;-72
2022/01/27 04:00:07;;;;;;;;;10.50;10.50;;;;;;;;5073564;28;45466;-72
2022/01/27 04:02:35;;;;;;;;;13.00;12.75;;;;;;;;5074853;27;48358;-73
2022/01/27 04:05:01;;;;;;;;;12.00;11.00;;;;;;;;5073680;27;46091;-73
2022/01/27 04:07:26;;;;;;;;;12.00;10.00;;;;;;;;5074619;28;45442;-73
2022/01/27 04:09:51;;;;;;;;;9.25;9.25;;;;;;;;5077313;28;45325;-72
2022/01/27 04:12:16;;;;;;;;;11.25;8.25;;;;;;;;5074622;28;46229;-72
2022/01/27 04:14:42;;;;;;;;;9.50;9.25;;;;;;;;5072948;28;45357;-73
2022/01/27 04:17:07;;;;;;;;;10.25;8.00;;;;;;;;5074497;27;45439;-72
2022/01/27 04:19:32;;;;;;;;;11.25;9.50;;;;;;;;5074316;27;45442;-73
2022/01/27 04:21:57;;;;;;;;;11.75;10.75;;;;;;;;5085216;27;45362;-73
2022/01/27 04:24:22;;;;;;;;;11.50;9.25;;;;;;;;5075295;28;45367;-72
2022/01/27 04:26:54;;;;;;;;;12.50;10.25;;;;;;;;5074555;28;45580;-72
2022/01/27 04:29:22;;;;;;;;;12.50;11.50;;;;;;;;5074910;27;45388;-73
2022/01/27 04:31:49;;;;;;;;;8.75;8.75;;;;;;;;5074333;27;46178;-73
2022/01/27 04:34:14;;;;;;;;;9.00;8.25;;;;;;;;5073904;28;45477;-72
2022/01/27 04:36:41;;;;;;;;;10.50;9.00;;;;;;;;5074998;28;45544;-72
2022/01/27 04:39:17;;;;;;;;;11.25;10.00;;;;;;;;5072251;28;45478;-72
2022/01/27 04:41:58;;;;;;;;;11.00;9.75;;;;;;;;5072409;27;45364;-73
2022/01/27 04:46:57;;;;;;;;;8.50;8.50;;;;;;;;5073840;27;48722;-73
2022/01/27 04:49:22;;;;;;;;;8.25;8.25;;;;;;;;5065623;27;45478;-72
2022/01/27 04:51:47;;;;;;;;;12.25;10.50;;;;;;;;5075766;27;47496;-73
2022/01/27 04:54:22;;;;;;;;;9.00;9.00;;;;;;;;5073813;27;45280;-72
2022/01/27 04:56:48;;;;;;;;;8.25;8.25;;;;;;;;5073992;28;50409;-72
2022/01/27 04:59:21;;;;;;;;;9.75;8.00;;;;;;;;5057811;28;45307;-72
2022/01/27 05:01:51;;;;;;;;;8.00;8.00;;;;;;;;5072675;28;46230;-73
2022/01/27 05:04:19;;;;;;;;;10.00;10.00;;;;;;;;5074126;28;45450;-73
2022/01/27 05:06:45;;;;;;;;;10.75;10.75;;;;;;;;5075745;27;45289;-72
2022/01/27 05:09:10;;;;;;;;;9.75;9.75;;;;;;;;5078737;27;45600;-73
2022/01/27 05:11:39;;;;;;;;;14.25;12.25;;;;;;;;5079434;27;46133;-73
2022/01/27 05:16:30;;;;;;;;;13.00;12.00;;;;;;;;5071901;28;45603;-72
2022/01/27 05:18:55;;;;;;;;;12.75;9.25;;;;;;;;5075688;27;45276;-73
2022/01/27 05:21:21;;;;;;;;;9.50;9.50;;;;;;;;5073777;27;45475;-72
2022/01/27 05:23:46;;;;;;;;;8.00;8.00;;;;;;;;5073576;28;45611;-73
2022/01/27 05:26:11;;;;;;;;;9.75;9.50;;;;;;;;5074657;27;45352;-72
2022/01/27 05:28:37;;;;;;;;;10.25;9.75;;;;;;;;5073770;28;45573;-72
2022/01/27 05:31:02;;;;;;;;;10.50;10.25;;;;;;;;5074206;27;45997;-72
2022/01/27 05:33:27;;;;;;;;;12.25;9.50;;;;;;;;5078650;27;45482;-73
2022/01/27 05:35:53;;;;;;;;;11.50;10.00;;;;;;;;5076922;27;45333;-72
2022/01/27 05:38:18;;;;;;;;;10.00;7.50;;;;;;;;5075956;27;45533;-72
2022/01/27 05:40:44;;;;;;;;;11.00;9.00;;;;;;;;5076271;27;45659;-72
2022/01/27 05:43:10;;;;;;;;;10.75;8.75;;;;;;;;5076595;27;45285;-72
2022/01/27 05:45:35;;;;;;;;;10.00;9.25;;;;;;;;5075716;27;45473;-72
2022/01/27 05:48:01;;;;;;;;;8.00;7.75;;;;;;;;5074884;28;45399;-72
2022/01/27 05:50:26;;;;;;;;;12.25;9.00;;;;;;;;5074496;27;47309;-72
2022/01/27 05:52:51;;;;;;;;;9.50;9.50;;;;;;;;5056253;27;45892;-72
2022/01/27 05:55:16;;;;;;;;;11.00;10.75;;;;;;;;5073418;28;45388;-72
2022/01/27 05:57:42;;;;;;;;;9.75;9.75;;;;;;;;5074349;27;45447;-72
2022/01/27 06:00:07;;;;;;;;;10.25;8.75;;;;;;;;5051455;28;48233;-72
2022/01/27 06:02:32;;;;;;;;;9.25;9.00;;;;;;;;5071620;28;45296;-73
2022/01/27 06:04:58;;;;;;;;;10.25;8.25;;;;;;;;5072637;27;45588;-72
2022/01/27 06:07:23;;;;;;;;;9.00;8.25;;;;;;;;5071999;27;45431;-73
2022/01/27 06:09:50;;;;;;;;;8.75;7.75;;;;;;;;5075015;27;46527;-72
2022/01/27 06:12:15;;;;;;;;;8.50;8.50;;;;;;;;5073013;28;45474;-72
2022/01/27 06:14:40;;;;;;;;;8.00;8.00;;;;;;;;5072513;27;45509;-72
2022/01/27 06:17:05;;;;;;;;;8.25;8.00;;;;;;;;5071118;27;45399;-72
2022/01/27 06:19:31;;;;;;;;;8.50;8.50;;;;;;;;5072605;27;46352;-71
2022/01/27 06:21:56;;;;;;;;;11.50;9.00;;;;;;;;5074698;28;45496;-72
2022/01/27 06:24:21;;;;;;;;;8.75;6.25;;;;;;;;5075100;27;45480;-72
2022/01/27 06:26:46;;;;;;;;;9.00;7.25;;;;;;;;5071465;28;45355;-71
2022/01/27 06:29:11;;;;;;;;;10.50;7.50;;;;;;;;5076116;27;46589;-72
2022/01/27 06:31:37;;;;;;;;;12.00;9.00;;;;;;;;5075900;27;45433;-72
2022/01/27 06:34:02;;;;;;;;;9.50;8.00;;;;;;;;5077543;27;45287;-72
2022/01/27 06:36:27;;;;;;;;;11.25;10.75;;;;;;;;5075975;27;45474;-72
2022/01/27 06:38:52;;;;;;;;;9.25;9.00;;;;;;;;5073309;27;46734;-71
2022/01/27 06:41:18;;;;;;;;;9.25;8.25;;;;;;;;5082773;27;45483;-71
2022/01/27 06:43:43;;;;;;;;;6.25;6.25;;;;;;;;5076544;27;45307;-71
2022/01/27 06:46:08;;;;;;;;;7.25;6.50;;;;;;;;5078035;27;45267;-70
2022/01/27 06:48:33;;;;;;;;;10.25;10.25;;;;;;;;5075503;28;50127;-74
2022/01/27 06:51:01;;;;;;;;;7.50;6.00;;;;;;;;5076080;28;45501;-71
2022/01/27 06:53:26;;;;;;;;;7.25;7.25;;;;;;;;5075113;27;45510;-72
2022/01/27 06:55:52;;;;;;;;;11.50;7.50;;;;;;;;5075709;28;45289;-70
2022/01/27 06:58:17;;;;;;;;;8.50;8.50;;;;;;;;5070131;28;46392;-69
2022/01/27 07:00:43;;;;;;;;;11.50;8.50;;;;;;;;5075474;27;45355;-70
2022/01/27 07:03:08;;;;;;;;;14.25;9.25;;;;;;;;5069324;27;45414;-69
2022/01/27 07:05:34;;;;;;;;;8.00;7.25;;;;;;;;5070657;28;45763;-70
2022/01/27 07:07:59;;;;;;;;;8.00;8.00;;;;;;;;5073935;28;46175;-71
2022/01/27 07:10:25;;;;;;;;;8.00;7.75;;;;;;;;5073409;27;45632;-72
2022/01/27 07:12:50;;;;;;;;;11.00;9.25;;;;;;;;5077093;27;45271;-72
2022/01/27 07:15:15;;;;;;;;;11.50;11.00;;;;;;;;5076757;28;45635;-71
2022/01/27 07:17:40;;;;;;;;;10.25;10.25;;;;;;;;5078336;27;46247;-70
2022/01/27 07:20:07;;;;;;;;;12.00;10.50;;;;;;;;5076505;27;45566;-70
2022/01/27 07:22:33;;;;;;;;;10.50;10.50;;;;;;;;5075458;28;45840;-71
2022/01/27 07:24:58;;;;;;;;;9.00;9.00;;;;;;;;5076939;28;45438;-71
2022/01/27 07:27:23;;;;;;;;;13.75;10.75;;;;;;;;5076324;28;45594;-71
2022/01/27 07:29:48;;;;;;;;;10.25;8.75;;;;;;;;5074099;27;45604;-70
2022/01/27 07:32:14;;;;;;;;;11.00;9.25;;;;;;;;5075282;27;45363;-71
2022/01/27 07:34:39;;;;;;;;;9.25;9.00;;;;;;;;5082884;27;45408;-71
2022/01/27 07:37:05;;;;;;;;;8.00;7.00;;;;;;;;5076242;27;46001;-71
2022/01/27 07:39:30;;;;;;;;;9.00;9.00;;;;;;;;5074016;27;45481;-70
2022/01/27 07:41:57;;;;;;;;;10.00;8.00;;;;;;;;5073155;27;45594;-71
2022/01/27 07:44:23;;;;;;;;;4.50;4.00;;;;;;;;5080704;27;45294;-71
2022/01/27 07:46:48;;;;;;;;;7.75;7.75;;;;;;;;5086154;27;46213;-71
2022/01/27 07:49:13;;;;;;;;;10.25;9.00;;;;;;;;5082126;27;45632;-71
2022/01/27 07:51:38;;;;;;;;;8.00;8.00;;;;;;;;5080077;27;45379;-71
2022/01/27 07:54:03;;;;;;;;;10.25;9.00;;;;;;;;5076999;27;45424;-71
2022/01/27 07:56:29;;;;;;;;;7.75;7.00;;;;;;;;5074533;27;46350;-71
2022/01/27 07:58:54;;;;;;;;;8.50;8.25;;;;;;;;5075990;27;46101;-71
2022/01/27 08:01:19;;;;;;;;;8.75;8.50;;;;;;;;5077303;27;45541;-71
2022/01/27 08:03:44;;;;;;;;;9.00;7.75;;;;;;;;5077113;28;45436;-71
2022/01/27 08:06:10;;;;;;;;;6.25;6.25;;;;;;;;5074157;27;47626;-71
2022/01/27 08:08:35;;;;;;;;;7.00;7.00;;;;;;;;5075089;28;45376;-71
2022/01/27 08:11:00;;;;;;;;;9.75;8.50;;;;;;;;5080981;27;45391;-71
2022/01/27 08:13:26;;;;;;;;;8.25;8.25;;;;;;;;5072845;27;45457;-71
2022/01/27 08:15:51;;;;;;;;;6.00;6.00;;;;;;;;5076910;27;47156;-71
2022/01/27 08:18:16;;;;;;;;;9.00;8.00;;;;;;;;5074194;28;45415;-71
2022/01/27 08:20:42;;;;;;;;;9.25;9.25;;;;;;;;5073394;28;45455;-71
2022/01/27 08:23:07;;;;;;;;;8.75;7.00;;;;;;;;5074318;28;45446;-71
2022/01/27 08:25:33;;;;;;;;;9.25;8.50;;;;;;;;5057804;28;46366;-71
2022/01/27 08:28:01;;;;;;;;;7.75;7.75;;;;;;;;5077432;27;45311;-71
2022/01/27 08:30:29;;;;;;;;;6.75;6.75;;;;;;;;5075135;28;45434;-71
2022/01/27 08:33:00;;;;;;;;;7.25;7.25;;;;;;;;5074115;27;45241;-71
2022/01/27 08:35:26;;;;;;;;;11.25;7.50;;;;;;;;5072674;27;46891;-71
2022/01/27 08:37:52;;;;;;;;;9.75;9.25;;;;;;;;5074193;28;45455;-71
2022/01/27 08:40:18;;;;;;;;;10.25;8.00;;;;;;;;5073781;28;45423;-71
2022/01/27 08:42:43;;;;;;;;;7.75;7.75;;;;;;;;5057876;28;45582;-71
2022/01/27 08:45:13;;;;;;;;;7.00;6.50;;;;;;;;5076675;27;45368;-71
2022/01/27 08:47:38;;;;;;;;;9.50;9.00;;;;;;;;5079566;27;45454;-71
2022/01/27 08:50:05;;;;;;;;;11.00;8.00;;;;;;;;5072251;28;45308;-71
2022/01/27 08:52:31;;;;;;;;;9.00;8.00;;;;;;;;5074060;27;45608;-71
2022/01/27 08:54:56;;;;;;;;;8.25;7.50;;;;;;;;5075333;28;45422;-71
2022/01/27 08:57:21;;;;;;;;;9.75;9.00;;;;;;;;5074081;27;45367;-71
2022/01/27 08:59:49;;;;;;;;;9.00;9.00;;;;;;;;5071732;28;45292;-71
2022/01/27 09:02:14;;;;;;;;;11.00;7.25;;;;;;;;5072926;28;45505;-71
2022/01/27 09:04:39;;;;;;;;;7.25;6.75;;;;;;;;5056199;28;46238;-71
2022/01/27 09:07:04;;;;;;;;;8.50;6.50;;;;;;;;5074507;28;45958;-72
2022/01/27 09:09:29;;;;;;;;;7.75;7.50;;;;;;;;5078575;27;45328;-71
2022/01/27 09:11:58;;;;;;;;;7.25;7.00;;;;;;;;5076570;27;45425;-71
2022/01/27 09:14:27;;;;;;;;;5.75;4.50;;;;;;;;5073181;28;46671;-71
2022/01/27 09:16:53;;;;;;;;;8.25;7.75;;;;;;;;5072172;27;45372;-71
2022/01/27 09:19:19;;;;;;;;;8.50;8.00;;;;;;;;5075153;28;45253;-71
2022/01/27 09:21:46;;;;;;;;;6.00;5.50;;;;;;;;5075541;28;45400;-71
2022/01/27 09:24:15;;;;;;;;;7.75;7.75;;;;;;;;5072273;28;46347;-71
2022/01/27 09:29:12;;;;;;;;;9.00;9.00;;;;;;;;5073403;28;45529;-71
2022/01/27 09:31:37;;;;;;;;;8.25;5.50;;;;;;;;5072110;27;45584;-71
2022/01/27 09:34:02;;;;;;;;;7.50;7.00;;;;;;;;5074279;28;46486;-71
2022/01/27 09:36:28;;;;;;;;;8.75;8.75;;;;;;;;5074689;28;45479;-71
2022/01/27 09:38:53;;;;;;;;;8.00;8.00;;;;;;;;5077636;27;45434;-71
2022/01/27 09:41:22;;;;;;;;;6.00;6.00;;;;;;;;5083073;27;45341;-71
2022/01/27 09:43:48;;;;;;;;;8.50;8.25;;;;;;;;5071720;28;47116;-71
2022/01/27 09:46:16;;;;;;;;;9.25;8.25;;;;;;;;5074307;27;45549;-71
2022/01/27 09:48:45;;;;;;;;;8.00;8.00;;;;;;;;5075415;28;45347;-71
2022/01/27 09:53:44;;;;;;;;;10.00;9.00;;;;;;;;5071693;28;45549;-71
2022/01/27 09:56:09;;;;;;;;;6.00;6.00;;;;;;;;5071006;28;46348;-71
2022/01/27 09:58:35;;;;;;;;;9.00;8.00;;;;;;;;5073190;28;45391;-71
2022/01/27 10:01:00;;;;;;;;;10.75;7.75;;;;;;;;5074396;28;45398;-71
2022/01/27 10:03:28;;;;;;;;;10.75;8.25;;;;;;;;5074231;28;46851;-70
2022/01/27 10:06:07;;;;;;;;;9.00;7.00;;;;;;;;5076460;27;45485;-71
2022/01/27 10:08:33;;;;;;;;;7.00;7.00;;;;;;;;5076781;27;45542;-71
2022/01/27 10:10:59;;;;;;;;;7.50;7.50;;;;;;;;5074287;27;45572;-71
2022/01/27 10:13:31;;;;;;;;;8.75;7.00;;;;;;;;5074293;28;46111;-71
2022/01/27 10:15:57;;;;;;;;;6.50;5.00;;;;;;;;5074766;27;45683;-71
2022/01/27 10:18:25;;;;;;;;;8.50;7.50;;;;;;;;5076840;27;45491;-71
2022/01/27 10:20:50;;;;;;;;;12.00;11.00;;;;;;;;5082195;27;45422;-71
2022/01/27 10:23:20;;;;;;;;;6.00;6.00;;;;;;;;5085608;27;47109;-71
2022/01/27 10:25:52;;;;;;;;;7.25;7.25;;;;;;;;5075196;27;45241;-71
2022/01/27 10:28:40;;;;;;;;;6.75;6.00;;;;;;;;5075645;28;45582;-71
2022/01/27 10:31:05;;;;;;;;;11.75;9.25;;;;;;;;5077857;27;45691;-71
2022/01/27 10:33:44;;;;;;;;;6.00;6.00;;;;;;;;5079559;27;46890;-72
2022/01/27 10:36:19;;;;;;;;;7.25;6.25;;;;;;;;5074735;28;45320;-71
2022/01/27 10:38:45;;;;;;;;;9.00;7.75;;;;;;;;5071356;27;45271;-71
2022/01/27 10:41:10;;;;;;;;;7.25;7.25;;;;;;;;5067875;27;45498;-72
2022/01/27 10:43:35;;;;;;;;;7.00;7.00;;;;;;;;5059233;28;47180;-72
2022/01/27 10:46:29;;;;;;;;;11.50;9.75;;;;;;;;5077546;28;45344;-71
2022/01/27 10:51:30;;;;;;;;;7.75;7.00;;;;;;;;5076530;28;45549;-71
2022/01/27 10:56:29;;;;;;;;;8.50;8.50;;;;;;;;5075548;28;45343;-71
2022/01/27 10:58:55;;;;;;;;;8.50;8.50;;;;;;;;5069781;27;45333;-71
2022/01/27 11:01:21;;;;;;;;;8.25;6.50;;;;;;;;5082272;27;45620;-71
2022/01/27 11:03:51;;;;;;;;;6.25;6.25;;;;;;;;5077775;28;47414;-71
2022/01/27 11:06:16;;;;;;;;;8.00;8.00;;;;;;;;5075423;27;45357;-71
2022/01/27 11:08:42;;;;;;;;;7.25;7.25;;;;;;;;5075752;28;45735;-71
2022/01/27 11:11:08;;;;;;;;;5.75;5.00;;;;;;;;5082667;27;45487;-71
2022/01/27 11:13:35;;;;;;;;;5.50;5.50;;;;;;;;5074716;28;46569;-71
2022/01/27 11:16:03;;;;;;;;;10.25;8.50;;;;;;;;5076133;27;45276;-72
2022/01/27 11:18:29;;;;;;;;;8.75;6.00;;;;;;;;5076589;27;45422;-72
2022/01/27 11:25:58;;;;;;;;;9.75;8.75;;;;;;;;5073086;28;45452;-72
2022/01/27 11:28:24;;;;;;;;;7.25;6.00;;;;;;;;5075447;28;45389;-72
2022/01/27 11:30:59;;;;;;;;;8.25;8.25;;;;;;;;5077168;28;45482;-72
2022/01/27 11:33:31;;;;;;;;;7.50;7.00;;;;;;;;5056826;28;47403;-72
2022/01/27 11:36:08;;;;;;;;;5.25;4.00;;;;;;;;5070339;28;45518;-72
2022/01/27 11:38:34;;;;;;;;;7.50;7.25;;;;;;;;5074064;27;45327;-72
2022/01/27 11:40:59;;;;;;;;;6.00;6.00;;;;;;;;5075309;27;46389;-72
2022/01/27 11:43:33;;;;;;;;;6.25;6.00;;;;;;;;5075265;27;45387;-71
2022/01/27 11:46:11;;;;;;;;;9.00;7.00;;;;;;;;5073209;28;45356;-72
2022/01/27 11:48:36;;;;;;;;;6.25;6.00;;;;;;;;5057027;28;45352;-71
2022/01/27 11:51:06;;;;;;;;;9.25;8.00;;;;;;;;5074313;27;45387;-72
2022/01/27 11:53:35;;;;;;;;;8.25;6.75;;;;;;;;5073603;28;46141;-72
2022/01/27 11:56:23;;;;;;;;;6.25;6.25;;;;;;;;5074483;27;45483;-72
2022/01/27 11:58:50;;;;;;;;;8.00;7.00;;;;;;;;5062446;27;45220;-72
2022/01/27 12:01:17;;;;;;;;;7.00;5.25;;;;;;;;5085963;27;45308;-72
2022/01/27 12:04:01;;;;;;;;;7.00;7.00;;;;;;;;5058687;28;48133;-72
2022/01/27 12:06:26;;;;;;;;;8.00;7.00;;;;;;;;5077168;27;45325;-71
2022/01/27 12:09:12;;;;;;;;;6.25;4.75;;;;;;;;5077716;27;45593;-72
2022/01/27 12:11:45;;;;;;;;;6.00;6.00;;;;;;;;5079760;27;45457;-72
2022/01/27 12:14:10;;;;;;;;;11.00;9.25;;;;;;;;5077023;27;46547;-72
2022/01/27 12:16:41;;;;;;;;;10.75;7.75;;;;;;;;5073146;28;45332;-72
2022/01/27 12:19:11;;;;;;;;;8.75;8.00;;;;;;;;5078508;27;45494;-72
2022/01/27 12:21:53;;;;;;;;;6.75;6.75;;;;;;;;5073862;27;45648;-72
2022/01/27 12:24:28;;;;;;;;;6.25;6.00;;;;;;;;5074210;27;46218;-72
2022/01/27 12:27:06;;;;;;;;;6.25;6.25;;;;;;;;5072304;28;45571;-72
2022/01/27 12:29:31;;;;;;;;;8.00;8.00;;;;;;;;5076695;27;45442;-72
2022/01/27 12:32:07;;;;;;;;;6.75;6.00;;;;;;;;5072046;27;45435;-72
2022/01/27 12:34:33;;;;;;;;;6.75;6.75;;;;;;;;5059154;28;46961;-72
2022/01/27 12:37:04;;;;;;;;;8.00;7.50;;;;;;;;5075749;28;45391;-72
2022/01/27 12:39:31;;;;;;;;;5.25;4.50;;;;;;;;5085661;27;45390;-72
2022/01/27 12:41:58;;;;;;;;;8.00;7.00;;;;;;;;5086072;27;45577;-72
2022/01/27 12:44:26;;;;;;;;;6.25;6.00;;;;;;;;5082089;27;46301;-72
2022/01/27 12:47:08;;;;;;;;;6.50;6.50;;;;;;;;5083276;27;45464;-71
2022/01/27 12:49:38;;;;;;;;;7.75;6.50;;;;;;;;5064729;28;45496;-72
2022/01/27 12:52:08;;;;;;;;;1.25;0.00;;;;;;;;5075139;27;45530;-72
2022/01/27 12:54:34;;;;;;;;;10.25;6.25;;;;;;;;5073682;28;46216;-71
2022/01/27 12:57:00;;;;;;;;;6.75;5.00;;;;;;;;5073093;28;45303;-72
2022/01/27 12:59:38;;;;;;;;;7.50;6.50;;;;;;;;5073992;27;45423;-72
2022/01/27 13:02:07;;;;;;;;;8.00;6.25;;;;;;;;5072176;27;45371;-72
2022/01/27 13:04:34;;;;;;;;;8.00;6.00;;;;;;;;5073270;28;46025;-72
2022/01/27 13:06:59;;;;;;;;;5.75;5.75;;;;;;;;5075223;28;45511;-72
2022/01/27 13:09:26;;;;;;;;;8.00;6.00;;;;;;;;5071981;28;45295;-72
2022/01/27 13:11:54;;;;;;;;;4.75;4.75;;;;;;;;5073735;28;45387;-72
2022/01/27 13:14:19;;;;;;;;;5.75;5.50;;;;;;;;5073459;28;46390;-72
2022/01/27 13:16:49;;;;;;;;;6.25;5.00;;;;;;;;5073727;27;45332;-72
2022/01/27 13:19:29;;;;;;;;;7.75;7.75;;;;;;;;5074660;27;45567;-71
2022/01/27 13:22:04;;;;;;;;;6.00;6.00;;;;;;;;5072036;27;45328;-72
2022/01/27 13:24:33;;;;;;;;;6.00;5.00;;;;;;;;5074792;28;47060;-72
2022/01/27 13:27:05;;;;;;;;;6.00;5.50;;;;;;;;5075771;27;45459;-72
2022/01/27 13:29:38;;;;;;;;;6.50;5.25;;;;;;;;5074723;27;45248;-72
2022/01/27 13:32:04;;;;;;;;;6.25;5.00;;;;;;;;5084786;27;45400;-72
2022/01/27 13:34:29;;;;;;;;;6.75;5.75;;;;;;;;5085469;27;46307;-72
2022/01/27 13:36:56;;;;;;;;;6.00;6.00;;;;;;;;5075475;28;45316;-71
2022/01/27 13:39:36;;;;;;;;;7.00;7.00;;;;;;;;5082291;27;45538;-72
2022/01/27 13:42:10;;;;;;;;;5.75;5.25;;;;;;;;5079633;27;45375;-72
2022/01/27 13:44:50;;;;;;;;;4.75;3.50;;;;;;;;5077148;27;45514;-72
2022/01/27 13:47:15;;;;;;;;;5.00;5.00;;;;;;;;5075707;27;45498;-72
2022/01/27 13:49:40;;;;;;;;;7.00;7.00;;;;;;;;5076999;27;45327;-72
2022/01/27 13:52:12;;;;;;;;;9.25;5.75;;;;;;;;5077812;27;45335;-72
2022/01/27 13:54:39;;;;;;;;;7.25;6.00;;;;;;;;5077206;27;45245;-72
2022/01/27 13:57:12;;;;;;;;;4.25;4.25;;;;;;;;5076221;27;45347;-71
2022/01/27 13:59:41;;;;;;;;;6.50;5.00;;;;;;;;5076568;27;45540;-71
2022/01/27 14:02:14;;;;;;;;;8.00;6.00;;;;;;;;5074004;27;45627;-72
2022/01/27 14:04:43;;;;;;;;;7.00;5.75;;;;;;;;5076344;28;46868;-72
2022/01/27 14:07:08;;;;;;;;;6.50;6.50;;;;;;;;5078819;27;45431;-72
2022/01/27 14:09:39;;;;;;;;;4.00;4.00;;;;;;;;5079231;27;45352;-72
2022/01/27 14:12:05;;;;;;;;;9.00;6.00;;;;;;;;5081754;27;45797;-72
2022/01/27 14:14:53;;;;;;;;;5.25;4.75;;;;;;;;5083534;27;46193;-72
2022/01/27 14:17:18;;;;;;;;;6.00;6.00;;;;;;;;5073427;28;45355;-72
2022/01/27 14:19:43;;;;;;;;;9.00;7.00;;;;;;;;5090193;27;45562;-72
2022/01/27 14:22:12;;;;;;;;;5.75;5.50;;;;;;;;5078608;27;45398;-72
2022/01/27 14:25:00;;;;;;;;;5.25;5.00;;;;;;;;5078886;27;47427;-72
2022/01/27 14:27:33;;;;;;;;;5.75;5.75;;;;;;;;5078915;27;45492;-72
2022/01/27 14:29:58;;;;;;;;;5.00;4.75;;;;;;;;5082086;27;45457;-72
2022/01/27 14:32:23;;;;;;;;;6.00;6.00;;;;;;;;5075982;27;48572;-71
2022/01/27 14:34:48;;;;;;;;;9.25;5.75;;;;;;;;5076093;28;46288;-72
2022/01/27 14:37:14;;;;;;;;;6.00;6.00;;;;;;;;5082291;27;45339;-72
2022/01/27 14:39:39;;;;;;;;;5.25;5.00;;;;;;;;5078674;27;45481;-71
2022/01/27 14:42:04;;;;;;;;;6.50;5.25;;;;;;;;5055071;28;45474;-72
2022/01/27 14:44:31;;;;;;;;;5.00;5.00;;;;;;;;5076378;28;45430;-72
2022/01/27 14:46:58;;;;;;;;;8.50;6.00;;;;;;;;5075471;28;45475;-72
2022/01/27 14:49:23;;;;;;;;;6.25;4.75;;;;;;;;5075309;28;45496;-72
2022/01/27 14:51:50;;;;;;;;;4.00;4.00;;;;;;;;5077586;28;45503;-72
2022/01/27 14:54:15;;;;;;;;;6.00;6.00;;;;;;;;5075438;27;46396;-72
2022/01/27 14:56:40;;;;;;;;;6.00;6.00;;;;;;;;5074372;27;45422;-72
2022/01/27 14:59:06;;;;;;;;;4.75;4.75;;;;;;;;5073542;27;45384;-72
2022/01/27 15:01:31;;;;;;;;;5.50;5.50;;;;;;;;5075649;27;45379;-72
2022/01/27 15:03:56;;;;;;;;;6.00;6.00;;;;;;;;5060085;28;47324;-72
2022/01/27 15:06:25;;;;;;;;;8.75;7.75;;;;;;;;5074156;27;45559;-71
2022/01/27 15:08:54;;;;;;;;;6.50;5.00;;;;;;;;5077872;27;45462;-72
2022/01/27 15:11:19;;;;;;;;;4.50;4.50;;;;;;;;5074372;27;45241;-71
2022/01/27 15:13:46;;;;;;;;;9.00;6.00;;;;;;;;5075103;27;45407;-72
2022/01/27 15:19:10;;;;;;;;;5.00;5.00;;;;;;;;5076089;28;45399;-71
2022/01/27 15:21:35;;;;;;;;;5.00;5.00;;;;;;;;5077225;27;45468;-71
2022/01/27 15:24:01;;;;;;;;;7.00;6.00;;;;;;;;5075117;28;47403;-71
2022/01/27 15:26:28;;;;;;;;;6.75;6.75;;;;;;;;5075556;27;45485;-71
2022/01/27 15:28:53;;;;;;;;;8.75;7.00;;;;;;;;5077338;27;45436;-71
2022/01/27 15:31:19;;;;;;;;;6.75;5.00;;;;;;;;5076644;27;45641;-71
2022/01/27 15:33:44;;;;;;;;;5.75;4.50;;;;;;;;5077196;28;46271;-71